createdAt,value
2022-08-07T00:00:40.162Z,14.10
2022-08-07T00:03:11.028Z,14.08
2022-08-07T00:05:38.739Z,14.04
2022-08-07T00:08:07.891Z,14.02
2022-08-07T00:10:36.401Z,14.01
2022-08-07T00:13:25.616Z,13.98
2022-08-07T00:15:55.521Z,13.94
2022-08-07T00:18:25.891Z,13.88
2022-08-07T00:21:03.295Z,13.78
2022-08-07T00:23:37.305Z,13.69
2022-08-07T00:26:18.886Z,13.62
2022-08-07T00:29:00.013Z,13.55
2022-08-07T00:31:37.588Z,13.50
2022-08-07T00:34:09.595Z,13.44
2022-08-07T00:36:43.142Z,13.40
2022-08-07T00:39:16.687Z,13.36
2022-08-07T00:42:02.134Z,13.26
2022-08-07T00:44:34.152Z,13.16
2022-08-07T00:47:03.152Z,13.08
2022-08-07T00:50:20.418Z,13.02
2022-08-07T00:52:21.985Z,12.92
2022-08-07T00:54:53.892Z,12.85
2022-08-07T00:57:25.943Z,12.80
2022-08-07T00:59:54.469Z,12.77
2022-08-07T01:02:29.304Z,12.73
2022-08-07T01:04:58.862Z,12.69
2022-08-07T01:07:29.386Z,12.66
2022-08-07T01:10:03.972Z,12.63
2022-08-07T01:12:36.534Z,12.57
2022-08-07T01:15:05.283Z,12.50
2022-08-07T01:17:34.513Z,12.42
2022-08-07T01:20:10.738Z,12.32
2022-08-07T01:22:54.192Z,12.22
2022-08-07T01:25:53.589Z,12.15
2022-08-07T01:28:22.734Z,12.08
2022-08-07T01:30:53.829Z,12.03
2022-08-07T01:33:23.790Z,11.98
2022-08-07T01:36:06.549Z,11.94
2022-08-07T01:38:38.124Z,11.90
2022-08-07T01:41:26.128Z,11.86
2022-08-07T01:43:56.800Z,11.82
2022-08-07T01:46:25.722Z,11.78
2022-08-07T01:48:55.594Z,11.75
2022-08-07T01:52:04.258Z,11.69
2022-08-07T01:54:21.980Z,11.65
2022-08-07T01:57:24.474Z,11.60
2022-08-07T02:00:13.313Z,11.56
2022-08-07T02:03:12.110Z,11.52
2022-08-07T02:05:59.216Z,11.51
2022-08-07T02:08:30.622Z,11.49
2022-08-07T02:10:59.603Z,11.47
2022-08-07T02:13:56.906Z,11.44
2022-08-07T02:16:29.918Z,11.41
2022-08-07T02:20:03.574Z,11.37
2022-08-07T02:21:58.777Z,11.33
2022-08-07T02:24:29.652Z,11.27
2022-08-07T02:27:02.476Z,11.24
2022-08-07T02:29:32.296Z,11.21
2022-08-07T02:32:04.431Z,11.17
2022-08-07T02:34:32.997Z,11.15
2022-08-07T02:37:08.137Z,11.11
2022-08-07T02:40:01.775Z,11.09
2022-08-07T02:42:29.883Z,11.08
2022-08-07T02:45:01.082Z,11.08
2022-08-07T02:47:49.651Z,11.08
2022-08-07T02:50:18.406Z,11.08
2022-08-07T02:53:00.869Z,11.10
2022-08-07T02:56:02.235Z,11.09
2022-08-07T02:58:27.116Z,11.06
2022-08-07T03:00:57.870Z,11.02
2022-08-07T03:03:29.609Z,10.99
2022-08-07T03:06:25.666Z,10.96
2022-08-07T03:09:03.752Z,10.92
2022-08-07T03:11:38.384Z,10.89
2022-08-07T03:14:07.733Z,10.86
2022-08-07T03:16:35.756Z,10.84
2022-08-07T03:19:04.859Z,10.82
2022-08-07T03:21:33.542Z,10.81
2022-08-07T03:24:19.527Z,10.81
2022-08-07T03:26:58.159Z,10.80
2022-08-07T03:29:36.736Z,10.81
2022-08-07T03:32:13.047Z,10.81
2022-08-07T03:35:16.746Z,10.82
2022-08-07T03:37:45.857Z,10.80
2022-08-07T03:40:16.460Z,10.80
2022-08-07T03:42:45.019Z,10.81
2022-08-07T03:45:29.953Z,10.81
2022-08-07T03:48:02.718Z,10.83
2022-08-07T03:50:34.001Z,10.83
2022-08-07T03:53:03.307Z,10.85
2022-08-07T03:55:58.143Z,10.86
2022-08-07T03:59:04.959Z,10.88
2022-08-07T04:01:11.287Z,10.91
2022-08-07T04:03:53.350Z,10.92
2022-08-07T04:06:37.615Z,10.96
2022-08-07T04:09:15.423Z,11.00
2022-08-07T04:12:26.380Z,11.07
2022-08-07T04:14:38.576Z,11.27
2022-08-07T04:17:20.243Z,11.53
2022-08-07T04:19:52.170Z,11.66
2022-08-07T04:22:23.209Z,11.77
2022-08-07T04:24:56.133Z,11.77
2022-08-07T04:27:26.815Z,11.80
2022-08-07T04:30:01.549Z,11.82
2022-08-07T04:32:47.753Z,11.85
2022-08-07T04:35:16.753Z,11.91
2022-08-07T04:38:03.520Z,11.97
2022-08-07T04:40:33.396Z,12.12
2022-08-07T04:43:03.509Z,12.20
2022-08-07T04:46:01.250Z,12.28
2022-08-07T04:48:51.072Z,12.40
2022-08-07T04:52:03.723Z,12.50
2022-08-07T04:54:36.871Z,12.64
2022-08-07T04:58:23.667Z,12.75
2022-08-07T05:00:30.214Z,12.90
2022-08-07T05:03:17.225Z,13.06
2022-08-07T05:06:19.321Z,13.21
2022-08-07T05:09:08.977Z,13.39
2022-08-07T05:11:58.058Z,13.55
2022-08-07T05:14:56.348Z,13.69
2022-08-07T05:17:52.501Z,13.86
2022-08-07T05:20:17.940Z,14.01
2022-08-07T05:22:49.761Z,14.10
2022-08-07T05:25:25.697Z,14.16
2022-08-07T05:28:20.833Z,14.22
2022-08-07T05:30:53.368Z,14.28
2022-08-07T05:33:22.465Z,14.33
2022-08-07T05:35:51.889Z,14.40
2022-08-07T05:39:01.264Z,14.47
2022-08-07T05:41:16.693Z,14.56
2022-08-07T05:44:08.660Z,14.66
2022-08-07T05:46:37.679Z,14.86
2022-08-07T05:49:11.674Z,15.63
2022-08-07T05:51:46.471Z,16.30
2022-08-07T05:54:31.080Z,16.43
2022-08-07T05:57:06.457Z,16.93
2022-08-07T05:59:58.072Z,17.60
2022-08-07T06:02:31.695Z,17.63
2022-08-07T06:05:15.871Z,17.94
2022-08-07T06:08:13.203Z,18.02
2022-08-07T06:10:38.969Z,17.97
2022-08-07T06:13:08.099Z,18.07
2022-08-07T06:15:42.978Z,18.01
2022-08-07T06:18:14.542Z,17.89
2022-08-07T06:20:50.363Z,17.76
2022-08-07T06:23:46.284Z,17.55
2022-08-07T06:26:27.799Z,17.37
2022-08-07T06:28:59.686Z,17.24
2022-08-07T06:31:47.320Z,17.05
2022-08-07T06:34:20.513Z,16.96
2022-08-07T06:36:51.917Z,16.94
2022-08-07T06:40:12.988Z,16.92
2022-08-07T06:42:16.238Z,16.91
2022-08-07T06:44:53.872Z,16.93
2022-08-07T06:47:22.341Z,16.94
2022-08-07T06:49:58.188Z,16.95
2022-08-07T06:52:37.984Z,17.01
2022-08-07T06:55:33.996Z,17.08
2022-08-07T06:58:14.013Z,17.16
2022-08-07T07:00:55.810Z,17.23
2022-08-07T07:03:40.140Z,17.32
2022-08-07T07:06:12.224Z,17.36
2022-08-07T07:08:46.456Z,17.36
2022-08-07T07:12:08.284Z,17.43
2022-08-07T07:14:02.984Z,17.47
2022-08-07T07:16:39.024Z,17.48
2022-08-07T07:19:56.049Z,17.51
2022-08-07T07:22:34.094Z,17.60
2022-08-07T07:25:03.017Z,17.94
2022-08-07T07:28:02.493Z,18.44
2022-08-07T07:30:39.403Z,18.89
2022-08-07T07:33:13.580Z,19.40
2022-08-07T07:36:05.015Z,20.06
2022-08-07T07:38:33.076Z,20.95
2022-08-07T07:41:05.550Z,21.56
2022-08-07T07:44:13.874Z,22.12
2022-08-07T07:46:37.730Z,22.18
2022-08-07T07:50:33.945Z,21.17
2022-08-07T07:52:09.239Z,20.53
2022-08-07T07:54:37.642Z,20.70
2022-08-07T07:57:09.796Z,21.03
2022-08-07T07:59:52.292Z,21.36
2022-08-07T08:02:33.718Z,21.52
2022-08-07T08:05:14.136Z,22.13
2022-08-07T08:07:59.684Z,22.92
2022-08-07T08:10:37.611Z,23.61
2022-08-07T08:13:15.449Z,24.04
2022-08-07T08:15:58.557Z,24.14
2022-08-07T08:18:31.376Z,24.39
2022-08-07T08:21:55.731Z,24.46
2022-08-07T08:24:45.549Z,24.17
2022-08-07T08:27:16.874Z,23.54
2022-08-07T08:29:55.512Z,23.08
2022-08-07T08:32:38.369Z,22.68
2022-08-07T08:35:10.111Z,22.49
2022-08-07T08:37:59.787Z,22.32
2022-08-07T08:40:40.707Z,22.14
2022-08-07T08:43:42.880Z,21.92
2022-08-07T08:46:45.023Z,21.60
2022-08-07T08:49:33.385Z,21.44
2022-08-07T08:52:19.070Z,21.56
2022-08-07T08:55:01.211Z,21.70
2022-08-07T08:57:51.274Z,22.16
2022-08-07T09:00:21.002Z,22.69
2022-08-07T09:03:49.406Z,23.05
2022-08-07T09:06:22.493Z,23.24
2022-08-07T09:09:09.707Z,23.34
2022-08-07T09:12:30.292Z,23.28
2022-08-07T09:16:20.215Z,23.28
2022-08-07T09:18:15.775Z,23.29
2022-08-07T09:21:01.588Z,23.17
2022-08-07T09:24:30.452Z,22.84
2022-08-07T09:26:47.547Z,22.46
2022-08-07T09:30:06.064Z,22.25
2022-08-07T09:32:45.161Z,22.00
2022-08-07T09:36:03.472Z,21.71
2022-08-07T09:38:50.283Z,21.47
2022-08-07T09:41:43.274Z,21.15
2022-08-07T09:47:26.194Z,20.84
2022-08-07T09:48:24.559Z,20.60
2022-08-07T09:51:26.033Z,20.41
2022-08-07T09:54:02.552Z,20.31
2022-08-07T09:56:41.800Z,20.31
2022-08-07T09:59:14.984Z,20.32
2022-08-07T10:01:55.373Z,20.35
2022-08-07T10:04:33.077Z,20.37
2022-08-07T10:07:31.805Z,20.39
2022-08-07T10:11:16.502Z,20.39
2022-08-07T10:14:00.127Z,20.30
2022-08-07T10:16:51.679Z,20.42
2022-08-07T10:19:26.945Z,20.48
2022-08-07T10:22:17.145Z,20.41
2022-08-07T10:24:49.957Z,20.29
2022-08-07T10:27:30.183Z,20.14
2022-08-07T10:30:17.546Z,19.93
2022-08-07T10:32:53.601Z,19.82
2022-08-07T10:35:57.071Z,19.77
2022-08-07T10:38:48.385Z,19.84
2022-08-07T10:41:52.166Z,19.97
2022-08-07T10:44:50.182Z,20.17
2022-08-07T10:47:52.490Z,20.39
2022-08-07T10:50:25.747Z,20.41
2022-08-07T10:53:41.700Z,20.38
2022-08-07T10:56:41.205Z,20.22
2022-08-07T10:59:30.401Z,20.11
2022-08-07T11:02:27.577Z,20.11
2022-08-07T11:05:19.531Z,20.22
2022-08-07T11:08:18.439Z,20.37
2022-08-07T11:10:59.803Z,20.50
2022-08-07T11:14:42.522Z,20.49
2022-08-07T11:17:01.300Z,20.39
2022-08-07T11:19:51.592Z,20.29
2022-08-07T11:22:45.931Z,20.23
2022-08-07T11:25:25.870Z,20.14
2022-08-07T11:28:30.451Z,20.02
2022-08-07T11:31:08.841Z,20.01
2022-08-07T11:33:59.097Z,20.08
2022-08-07T11:36:31.294Z,20.18
2022-08-07T11:39:59.180Z,20.34
2022-08-07T11:42:29.515Z,20.65
2022-08-07T11:45:13.519Z,20.63
2022-08-07T11:47:56.367Z,20.50
2022-08-07T11:50:44.662Z,20.31
2022-08-07T11:54:00.969Z,20.12
2022-08-07T11:56:42.361Z,19.87
2022-08-07T12:00:10.620Z,19.83
2022-08-07T12:02:52.048Z,19.85
2022-08-07T12:05:47.452Z,19.88
2022-08-07T12:08:25.830Z,19.89
2022-08-07T12:11:21.073Z,19.92
2022-08-07T12:13:52.244Z,20.04
2022-08-07T12:16:32.036Z,20.16
2022-08-07T12:19:14.807Z,20.32
2022-08-07T12:22:38.504Z,20.44
2022-08-07T12:26:21.984Z,20.58
2022-08-07T12:28:45.073Z,20.73
2022-08-07T12:32:01.605Z,20.79
2022-08-07T12:34:33.818Z,20.78
2022-08-07T12:37:02.045Z,20.74
2022-08-07T12:39:42.772Z,20.73
2022-08-07T12:42:13.510Z,20.70
2022-08-07T12:44:45.051Z,20.68
2022-08-07T12:47:45.429Z,20.77
2022-08-07T12:50:38.340Z,20.97
2022-08-07T12:54:03.290Z,21.18
2022-08-07T12:56:29.458Z,21.42
2022-08-07T12:58:59.721Z,21.56
2022-08-07T13:01:36.053Z,21.54
2022-08-07T13:04:34.394Z,21.51
2022-08-07T13:08:13.370Z,21.59
2022-08-07T13:10:51.830Z,21.52
2022-08-07T13:13:48.262Z,21.36
2022-08-07T13:16:36.685Z,21.18
2022-08-07T13:19:45.783Z,21.10
2022-08-07T13:22:52.553Z,21.05
2022-08-07T13:25:50.776Z,21.01
2022-08-07T13:28:34.775Z,21.05
2022-08-07T13:31:13.413Z,20.98
2022-08-07T13:34:33.354Z,20.86
2022-08-07T13:36:53.497Z,20.78
2022-08-07T13:40:34.346Z,20.71
2022-08-07T13:42:25.703Z,20.65
2022-08-07T13:48:51.926Z,20.60
2022-08-07T13:52:32.623Z,20.63
2022-08-07T13:59:39.703Z,20.76
2022-08-07T14:02:39.644Z,20.79
2022-08-07T14:05:22.409Z,20.81
2022-08-07T14:07:59.696Z,20.82
2022-08-07T14:10:42.376Z,20.79
2022-08-07T14:13:16.765Z,20.78
2022-08-07T14:15:56.933Z,20.75
2022-08-07T14:18:31.116Z,20.75
2022-08-07T14:21:21.158Z,20.70
2022-08-07T14:24:34.571Z,20.76
2022-08-07T14:28:09.520Z,20.78
2022-08-07T14:30:06.232Z,20.77
2022-08-07T14:32:46.202Z,20.70
2022-08-07T14:35:45.716Z,20.62
2022-08-07T14:38:26.424Z,20.56
2022-08-07T14:41:14.641Z,20.47
2022-08-07T14:43:58.072Z,20.37
2022-08-07T14:46:33.256Z,20.33
2022-08-07T14:49:55.938Z,20.33
2022-08-07T14:52:03.065Z,20.35
2022-08-07T14:54:35.829Z,20.41
2022-08-07T14:57:19.330Z,20.42
2022-08-07T15:00:06.188Z,20.41
2022-08-07T15:02:37.324Z,20.45
2022-08-07T15:05:20.363Z,20.46
2022-08-07T15:07:52.208Z,20.46
2022-08-07T15:13:18.036Z,20.38
2022-08-07T15:15:52.592Z,20.38
2022-08-07T15:21:44.732Z,20.48
2022-08-07T15:25:13.220Z,20.48
2022-08-07T15:27:20.936Z,20.48
2022-08-07T15:30:08.530Z,20.49
2022-08-07T15:33:01.618Z,20.48
2022-08-07T15:36:00.908Z,20.43
2022-08-07T15:38:30.779Z,20.37
2022-08-07T15:44:05.082Z,20.26
2022-08-07T15:46:38.424Z,20.26
2022-08-07T15:49:18.150Z,20.29
2022-08-07T15:54:34.651Z,20.37
2022-08-07T15:57:28.183Z,20.42
2022-08-07T15:59:59.626Z,20.47
2022-08-07T16:02:37.070Z,20.47
2022-08-07T16:05:15.410Z,20.45
2022-08-07T16:08:32.925Z,20.42
2022-08-07T16:11:26.186Z,20.38
2022-08-07T16:14:07.365Z,20.36
2022-08-07T16:17:15.324Z,20.35
2022-08-07T16:20:01.647Z,20.32
2022-08-07T16:22:56.643Z,20.27
2022-08-07T16:25:52.353Z,20.22
2022-08-07T16:30:06.067Z,20.18
2022-08-07T16:31:51.589Z,20.14
2022-08-07T16:34:36.991Z,20.14
2022-08-07T16:38:04.037Z,20.13
2022-08-07T16:41:01.726Z,20.09
2022-08-07T16:44:47.439Z,20.06
2022-08-07T16:47:49.584Z,20.03
2022-08-07T16:50:28.197Z,19.99
2022-08-07T16:53:47.957Z,19.95
2022-08-07T16:56:03.901Z,19.90
2022-08-07T16:59:11.275Z,19.85
2022-08-07T17:01:59.778Z,19.80
2022-08-07T17:04:50.914Z,19.76
2022-08-07T17:07:55.398Z,19.70
2022-08-07T17:10:32.610Z,19.62
2022-08-07T17:13:19.553Z,19.57
2022-08-07T17:16:08.942Z,19.52
2022-08-07T17:19:01.803Z,19.47
2022-08-07T17:21:52.323Z,19.42
2022-08-07T17:24:34.596Z,19.37
2022-08-07T17:27:19.734Z,19.30
2022-08-07T17:30:15.158Z,19.21
2022-08-07T17:34:09.216Z,19.12
2022-08-07T17:36:20.787Z,19.02
2022-08-07T17:39:10.542Z,18.92
2022-08-07T17:42:04.705Z,18.82
2022-08-07T17:44:49.489Z,18.72
2022-08-07T17:47:38.476Z,18.62
2022-08-07T17:50:30.580Z,18.51
2022-08-07T17:54:01.802Z,18.39
2022-08-07T17:56:11.145Z,18.25
2022-08-07T17:58:56.783Z,18.12
2022-08-07T18:01:36.565Z,17.96
2022-08-07T18:04:16.281Z,17.83
2022-08-07T18:07:20.860Z,17.68
2022-08-07T18:10:07.369Z,17.52
2022-08-07T18:12:54.039Z,17.38
2022-08-07T18:15:32.580Z,17.25
2022-08-07T18:18:46.909Z,17.12
2022-08-07T18:21:38.185Z,16.98
2022-08-07T18:24:00.771Z,16.82
2022-08-07T18:27:08.234Z,16.68
2022-08-07T18:30:07.864Z,16.55
2022-08-07T18:33:10.939Z,16.41
2022-08-07T18:36:09.355Z,16.27
2022-08-07T18:38:57.158Z,16.14
2022-08-07T18:42:04.159Z,16.00
2022-08-07T18:50:18.849Z,15.70
2022-08-07T18:51:17.030Z,15.58
2022-08-07T18:54:27.689Z,15.47
2022-08-07T18:57:30.137Z,15.37
2022-08-07T19:00:00.572Z,15.27
2022-08-07T19:02:50.918Z,15.19
2022-08-07T19:06:03.974Z,15.10
2022-08-07T19:08:23.026Z,15.01
2022-08-07T19:10:55.425Z,14.94
2022-08-07T19:13:50.261Z,14.87
2022-08-07T19:17:06.778Z,14.78
2022-08-07T19:20:02.324Z,14.68
2022-08-07T19:22:48.102Z,14.61
2022-08-07T19:26:22.009Z,14.53
2022-08-07T19:28:58.224Z,14.46
2022-08-07T19:32:02.475Z,14.38
2022-08-07T19:34:34.095Z,14.29
2022-08-07T19:37:16.998Z,14.22
2022-08-07T19:39:57.481Z,14.16
2022-08-07T19:42:31.348Z,14.10
2022-08-07T19:45:08.448Z,14.05
2022-08-07T19:47:38.630Z,13.99
2022-08-07T19:50:41.485Z,13.94
2022-08-07T19:52:58.374Z,13.89
2022-08-07T19:55:56.944Z,13.83
2022-08-07T19:58:27.941Z,13.78
2022-08-07T20:00:57.465Z,13.75
2022-08-07T20:03:34.911Z,13.72
2022-08-07T20:06:05.068Z,13.67
2022-08-07T20:08:37.538Z,13.63
2022-08-07T20:11:10.371Z,13.58
2022-08-07T20:13:43.732Z,13.54
2022-08-07T20:16:32.148Z,13.47
2022-08-07T20:19:10.496Z,13.43
2022-08-07T20:21:47.252Z,13.39
2022-08-07T20:24:28.533Z,13.36
2022-08-07T20:27:03.626Z,13.34
2022-08-07T20:29:49.494Z,13.31
2022-08-07T20:32:40.372Z,13.29
2022-08-07T20:35:16.068Z,13.25
2022-08-07T20:37:58.409Z,13.21
2022-08-07T20:40:34.639Z,13.18
2022-08-07T20:43:09.599Z,13.14
2022-08-07T20:46:28.241Z,13.11
2022-08-07T20:48:34.827Z,13.08
2022-08-07T20:51:09.328Z,13.04
2022-08-07T20:54:04.101Z,13.01
2022-08-07T20:56:29.149Z,12.98
2022-08-07T20:59:01.723Z,12.98
2022-08-07T21:01:45.235Z,12.96
2022-08-07T21:04:26.418Z,12.95
2022-08-07T21:06:58.506Z,12.93
2022-08-07T21:09:51.671Z,12.92
2022-08-07T21:12:28.949Z,12.89
2022-08-07T21:15:00.833Z,12.86
2022-08-07T21:18:03.549Z,12.84
2022-08-07T21:20:30.374Z,12.80
2022-08-07T21:23:08.850Z,12.78
2022-08-07T21:25:56.818Z,12.76
2022-08-07T21:28:48.261Z,12.73
2022-08-07T21:31:50.153Z,12.72
2022-08-07T21:34:26.692Z,12.70
2022-08-07T21:37:00.689Z,12.69
2022-08-07T21:39:46.669Z,12.67
2022-08-07T21:42:46.681Z,12.64
2022-08-07T21:46:09.314Z,12.61
2022-08-07T21:48:34.336Z,12.58
2022-08-07T21:51:25.459Z,12.55
2022-08-07T21:54:05.097Z,12.52
2022-08-07T21:56:49.134Z,12.49
2022-08-07T22:00:02.796Z,12.46
2022-08-07T22:02:31.587Z,12.43
2022-08-07T22:05:01.672Z,12.40
2022-08-07T22:07:58.939Z,12.38
2022-08-07T22:10:26.112Z,12.36
2022-08-07T22:12:57.287Z,12.33
2022-08-07T22:16:44.356Z,12.31
2022-08-07T22:18:47.392Z,12.27
2022-08-07T22:21:21.221Z,12.24
2022-08-07T22:24:16.054Z,12.20
2022-08-07T22:26:51.744Z,12.18
2022-08-07T22:29:47.446Z,12.16
2022-08-07T22:32:43.850Z,12.13
2022-08-07T22:35:11.823Z,12.11
2022-08-07T22:38:03.337Z,12.09
2022-08-07T22:40:42.284Z,12.05
2022-08-07T22:43:13.606Z,12.03
2022-08-07T22:46:21.584Z,12.02
2022-08-07T22:48:55.603Z,12.00
2022-08-07T22:51:49.311Z,11.97
2022-08-07T22:54:55.329Z,11.94
2022-08-07T22:57:41.565Z,11.91
2022-08-07T23:00:28.412Z,11.90
2022-08-07T23:02:56.765Z,11.87
2022-08-07T23:06:14.709Z,11.86
2022-08-07T23:08:54.532Z,11.85
2022-08-07T23:11:47.264Z,11.84
2022-08-07T23:14:56.357Z,11.82
2022-08-07T23:17:41.713Z,11.82
2022-08-07T23:20:40.776Z,11.81
2022-08-07T23:24:05.935Z,11.81
2022-08-07T23:26:35.527Z,11.80
2022-08-07T23:30:35.091Z,11.78
2022-08-07T23:34:22.055Z,11.78
2022-08-07T23:36:05.282Z,11.76
2022-08-07T23:38:56.865Z,11.75
2022-08-07T23:41:47.730Z,11.73
2022-08-07T23:44:49.028Z,11.71
2022-08-07T23:47:29.719Z,11.69
2022-08-07T23:50:30.162Z,11.68
2022-08-07T23:53:51.615Z,11.67
2022-08-07T23:56:53.479Z,11.67
